createdAt,value
2022-08-27T00:00:30.710Z,99632.22
2022-08-27T00:03:19.253Z,99601.66
2022-08-27T00:06:07.619Z,99632.22
2022-08-27T00:08:58.249Z,99631.56
2022-08-27T00:11:46.311Z,99627.66
2022-08-27T00:14:34.383Z,99626.91
2022-08-27T00:17:22.453Z,99629.69
2022-08-27T00:20:11.120Z,99628.53
2022-08-27T00:22:59.124Z,99632.56
2022-08-27T00:25:48.404Z,99627.44
2022-08-27T00:28:36.472Z,99621.84
2022-08-27T00:31:27.242Z,99626.66
2022-08-27T00:34:15.717Z,99615.06
2022-08-27T00:37:03.860Z,99623.31
2022-08-27T00:39:52.143Z,99621.19
2022-08-27T00:42:42.411Z,99620.84
2022-08-27T00:45:33.903Z,99617.72
2022-08-27T00:48:25.212Z,99611.94
2022-08-27T00:51:13.265Z,99609.47
2022-08-27T00:54:02.463Z,99606.81
2022-08-27T00:56:51.828Z,99600.56
2022-08-27T00:59:43.749Z,99601.44
2022-08-27T01:02:32.060Z,99600.56
2022-08-27T01:05:25.411Z,99606.13
2022-08-27T01:08:18.440Z,99602.56
2022-08-27T01:11:07.413Z,99596.00
2022-08-27T01:14:05.053Z,99601.22
2022-08-27T01:16:56.970Z,99609.69
2022-08-27T01:19:48.087Z,99606.34
2022-08-27T01:22:45.317Z,99603.00
2022-08-27T01:25:34.768Z,99607.25
2022-08-27T01:28:23.528Z,99603.13
2022-08-27T01:31:15.047Z,99603.34
2022-08-27T01:34:06.041Z,99603.69
2022-08-27T01:36:57.290Z,99601.22
2022-08-27T01:39:45.943Z,99600.56
2022-08-27T01:42:41.452Z,99603.69
2022-08-27T01:45:32.437Z,99607.66
2022-08-27T01:48:22.224Z,99612.69
2022-08-27T01:51:10.774Z,99603.09
2022-08-27T01:53:58.939Z,99603.66
2022-08-27T01:56:46.909Z,99606.53
2022-08-27T01:59:39.567Z,99599.41
2022-08-27T02:02:28.057Z,99605.16
2022-08-27T02:05:16.655Z,99596.22
2022-08-27T02:08:04.896Z,99596.69
2022-08-27T02:10:53.098Z,99600.25
2022-08-27T02:13:41.123Z,99595.88
2022-08-27T02:16:31.806Z,99584.72
2022-08-27T02:19:21.737Z,99587.53
2022-08-27T02:22:10.042Z,99588.50
2022-08-27T02:24:57.959Z,99583.50
2022-08-27T02:27:45.952Z,99578.22
2022-08-27T02:30:35.525Z,99581.53
2022-08-27T02:33:24.843Z,99579.09
2022-08-27T02:36:13.593Z,99584.25
2022-08-27T02:39:01.611Z,99578.31
2022-08-27T02:41:49.952Z,99593.66
2022-08-27T02:44:37.963Z,99581.84
2022-08-27T02:47:26.143Z,99588.81
2022-08-27T02:50:15.686Z,99599.63
2022-08-27T02:53:06.166Z,99582.44
2022-08-27T02:55:54.552Z,99591.13
2022-08-27T02:58:42.537Z,99596.84
2022-08-27T03:01:30.725Z,99582.63
2022-08-27T03:04:19.844Z,99593.66
2022-08-27T03:07:18.817Z,99592.19
2022-08-27T03:10:08.598Z,99590.63
2022-08-27T03:12:57.158Z,99586.53
2022-08-27T03:15:45.708Z,99593.22
2022-08-27T03:18:34.693Z,99584.88
2022-08-27T03:21:25.177Z,99574.78
2022-08-27T03:24:14.555Z,99576.25
2022-08-27T03:27:03.229Z,99578.63
2022-08-27T03:29:51.242Z,99579.84
2022-08-27T03:32:40.060Z,99556.00
2022-08-27T03:35:28.139Z,99585.59
2022-08-27T03:38:18.081Z,99584.38
2022-08-27T03:41:07.779Z,99583.06
2022-08-27T03:43:56.762Z,99591.28
2022-08-27T03:46:44.915Z,99599.03
2022-08-27T03:49:32.932Z,99584.56
2022-08-27T03:52:21.058Z,99592.84
2022-08-27T03:55:10.211Z,99594.22
2022-08-27T03:58:01.622Z,99593.16
2022-08-27T04:00:49.653Z,99592.84
2022-08-27T04:03:38.352Z,99598.63
2022-08-27T04:06:26.383Z,99597.00
2022-08-27T04:09:14.496Z,99597.56
2022-08-27T04:12:02.686Z,99598.22
2022-08-27T04:14:52.041Z,99596.56
2022-08-27T04:17:40.319Z,99595.69
2022-08-27T04:20:36.267Z,99598.81
2022-08-27T04:23:24.290Z,99599.06
2022-08-27T04:26:12.726Z,99602.81
2022-08-27T04:29:00.732Z,99602.81
2022-08-27T04:31:50.150Z,99611.44
2022-08-27T04:34:38.185Z,99607.06
2022-08-27T04:37:27.705Z,99604.53
2022-08-27T04:40:15.836Z,99606.88
2022-08-27T04:43:03.841Z,99607.91
2022-08-27T04:45:52.125Z,99622.19
2022-08-27T04:48:41.657Z,99615.69
2022-08-27T04:51:31.149Z,99623.53
2022-08-27T04:54:19.221Z,99614.59
2022-08-27T04:57:14.011Z,99613.06
2022-08-27T05:00:01.963Z,99619.31
2022-08-27T05:02:49.979Z,99616.84
2022-08-27T05:05:41.571Z,99623.88
2022-08-27T05:08:31.471Z,99624.97
2022-08-27T05:11:21.414Z,99630.91
2022-08-27T05:14:13.378Z,99588.72
2022-08-27T05:17:01.369Z,99632.25
2022-08-27T05:19:49.449Z,99635.38
2022-08-27T05:22:39.577Z,99625.31
2022-08-27T05:25:28.488Z,99592.97
2022-08-27T05:28:18.491Z,99630.66
2022-08-27T05:31:12.554Z,99626.41
2022-08-27T05:34:01.297Z,99631.66
2022-08-27T05:36:49.605Z,99630.78
2022-08-27T05:39:39.127Z,99627.00
2022-08-27T05:42:27.234Z,99629.19
2022-08-27T05:45:17.059Z,99627.66
2022-08-27T05:48:05.007Z,99626.31
2022-08-27T05:50:53.326Z,99624.09
2022-08-27T05:53:41.977Z,99630.69
2022-08-27T05:56:35.179Z,99635.09
2022-08-27T05:59:40.893Z,99629.84
2022-08-27T06:02:29.276Z,99628.03
2022-08-27T06:05:17.746Z,99631.38
2022-08-27T06:08:05.909Z,99633.47
2022-08-27T06:10:53.841Z,99640.81
2022-08-27T06:13:43.539Z,99637.91
2022-08-27T06:16:32.548Z,99643.84
2022-08-27T06:19:20.663Z,99634.69
2022-08-27T06:22:10.399Z,99641.75
2022-08-27T06:24:58.725Z,99647.28
2022-08-27T06:27:46.886Z,99638.38
2022-08-27T06:30:36.482Z,99637.06
2022-08-27T06:33:24.497Z,99636.34
2022-08-27T06:36:15.495Z,99600.41
2022-08-27T06:39:03.673Z,99610.28
2022-08-27T06:41:51.946Z,99639.31
2022-08-27T06:44:42.932Z,99619.25
2022-08-27T06:47:34.313Z,99641.09
2022-08-27T06:50:26.697Z,99649.56
2022-08-27T06:53:15.594Z,99650.50
2022-08-27T06:56:05.001Z,99650.97
2022-08-27T06:58:54.010Z,99663.28
2022-08-27T07:01:44.832Z,99662.78
2022-08-27T07:04:34.263Z,99664.06
2022-08-27T07:07:32.659Z,99663.25
2022-08-27T07:10:24.793Z,99670.56
2022-08-27T07:13:12.892Z,99666.53
2022-08-27T07:16:06.405Z,99584.19
2022-08-27T07:18:56.665Z,99650.13
2022-08-27T07:21:48.813Z,99667.41
2022-08-27T07:24:37.521Z,99661.94
2022-08-27T07:27:25.556Z,99669.50
2022-08-27T07:30:15.317Z,99668.25
2022-08-27T07:33:03.433Z,99678.34
2022-08-27T07:35:52.014Z,99670.72
2022-08-27T07:38:41.404Z,99671.97
2022-08-27T07:41:31.889Z,99678.66
2022-08-27T07:44:26.057Z,99677.91
2022-08-27T07:47:14.439Z,99688.06
2022-08-27T07:50:02.455Z,99682.50
2022-08-27T07:52:50.866Z,99679.19
2022-08-27T07:55:40.352Z,99675.13
2022-08-27T07:58:28.287Z,99684.38
2022-08-27T08:01:17.836Z,99689.22
2022-08-27T08:04:05.891Z,99687.06
2022-08-27T08:06:55.419Z,99694.88
2022-08-27T08:09:43.411Z,99693.34
2022-08-27T08:12:32.688Z,99692.56
2022-08-27T08:15:21.270Z,99696.31
2022-08-27T08:18:09.373Z,99705.53
2022-08-27T08:21:01.654Z,99705.56
2022-08-27T08:23:49.968Z,99701.81
2022-08-27T08:26:37.966Z,99706.94
2022-08-27T08:29:27.312Z,99699.31
2022-08-27T08:32:15.625Z,99702.09
2022-08-27T08:35:04.326Z,99703.06
2022-08-27T08:37:52.478Z,99699.59
2022-08-27T08:40:43.167Z,99705.13
2022-08-27T08:43:34.426Z,99696.00
2022-08-27T08:46:33.050Z,99697.50
2022-08-27T08:49:42.804Z,99702.84
2022-08-27T08:52:42.142Z,99694.13
2022-08-27T08:55:49.109Z,99708.31
2022-08-27T08:58:45.044Z,99702.84
2022-08-27T09:01:35.239Z,99702.06
2022-08-27T09:04:26.620Z,99701.41
2022-08-27T09:07:22.821Z,99704.69
2022-08-27T09:10:16.831Z,99698.19
2022-08-27T09:13:08.247Z,99702.47
2022-08-27T09:15:59.657Z,99710.88
2022-08-27T09:18:51.141Z,99710.16
2022-08-27T09:21:52.358Z,99714.94
2022-08-27T09:24:52.702Z,99721.56
2022-08-27T09:27:43.886Z,99718.44
2022-08-27T09:30:42.859Z,99712.50
2022-08-27T09:33:43.743Z,99709.88
2022-08-27T09:36:52.295Z,99713.00
2022-08-27T09:39:48.271Z,99706.06
2022-08-27T09:42:40.133Z,99723.03
2022-08-27T09:45:30.763Z,99716.00
2022-08-27T09:48:21.301Z,99721.97
2022-08-27T09:51:12.597Z,99717.50
2022-08-27T09:54:04.240Z,99720.19
2022-08-27T09:56:52.278Z,99719.94
2022-08-27T09:59:53.795Z,99710.16
2022-08-27T10:02:50.887Z,99716.69
2022-08-27T10:05:43.717Z,99720.88
2022-08-27T10:08:39.656Z,99709.75
2022-08-27T10:11:33.693Z,99719.69
2022-08-27T10:14:27.374Z,99682.94
2022-08-27T10:17:25.067Z,99706.16
2022-08-27T10:20:20.350Z,99701.63
2022-08-27T10:23:26.496Z,99706.16
2022-08-27T10:26:21.654Z,99707.53
2022-08-27T10:29:22.042Z,99705.28
2022-08-27T10:32:25.548Z,99695.91
2022-08-27T10:35:17.818Z,99694.44
2022-08-27T10:38:14.754Z,99704.03
2022-08-27T10:41:09.645Z,99700.59
2022-08-27T10:44:16.832Z,99703.94
2022-08-27T10:47:13.927Z,99706.81
2022-08-27T10:50:06.570Z,99698.25
2022-08-27T10:53:00.794Z,99687.69
2022-08-27T10:55:53.076Z,99698.59
2022-08-27T10:58:50.983Z,99697.31
2022-08-27T11:01:49.129Z,99691.28
2022-08-27T11:04:42.667Z,99689.84
2022-08-27T11:07:33.424Z,99700.00
2022-08-27T11:10:26.454Z,99705.09
2022-08-27T11:13:20.274Z,99698.47
2022-08-27T11:16:17.126Z,99693.53
2022-08-27T11:19:13.946Z,99698.41
2022-08-27T11:22:12.290Z,99696.78
2022-08-27T11:25:15.017Z,99697.41
2022-08-27T11:28:05.586Z,99704.31
2022-08-27T11:31:00.709Z,99694.47
2022-08-27T11:33:58.069Z,99684.78
2022-08-27T11:37:07.745Z,99693.53
2022-08-27T11:40:18.759Z,99689.38
2022-08-27T11:43:10.301Z,99666.13
2022-08-27T11:46:01.154Z,99694.88
2022-08-27T11:48:59.044Z,99691.34
2022-08-27T11:51:59.825Z,99694.53
2022-08-27T11:54:50.945Z,99687.13
2022-08-27T11:57:40.125Z,99683.94
2022-08-27T12:00:33.456Z,99686.34
2022-08-27T12:03:29.209Z,99691.56
2022-08-27T12:06:26.598Z,99686.22
2022-08-27T12:09:20.379Z,99684.84
2022-08-27T12:12:16.338Z,99679.22
2022-08-27T12:15:07.207Z,99675.63
2022-08-27T12:18:01.144Z,99675.00
2022-08-27T12:20:58.714Z,99675.13
2022-08-27T12:23:57.596Z,99673.09
2022-08-27T12:26:58.605Z,99672.66
2022-08-27T12:29:50.777Z,99670.09
2022-08-27T12:32:40.960Z,99663.50
2022-08-27T12:35:34.067Z,99654.78
2022-08-27T12:38:34.920Z,99663.00
2022-08-27T12:41:28.677Z,99660.31
2022-08-27T12:44:25.884Z,99650.50
2022-08-27T12:47:16.949Z,99655.09
2022-08-27T12:50:07.278Z,99647.13
2022-08-27T12:53:18.001Z,99651.34
2022-08-27T12:56:39.728Z,99653.69
2022-08-27T12:59:54.911Z,99652.00
2022-08-27T13:03:19.751Z,99642.13
2022-08-27T13:06:17.912Z,99645.13
2022-08-27T13:09:08.515Z,99645.91
2022-08-27T13:11:57.487Z,99642.34
2022-08-27T13:14:49.646Z,99639.22
2022-08-27T13:17:47.239Z,99636.19
2022-08-27T13:20:38.584Z,99630.44
2022-08-27T13:23:28.002Z,99640.16
2022-08-27T13:26:21.796Z,99634.28
2022-08-27T13:29:10.483Z,99631.53
2022-08-27T13:32:01.394Z,99639.94
2022-08-27T13:34:50.483Z,99640.59
2022-08-27T13:37:44.573Z,99634.94
2022-08-27T13:40:34.917Z,99631.19
2022-08-27T13:43:31.433Z,99632.78
2022-08-27T13:46:24.784Z,99630.63
2022-08-27T13:49:22.384Z,99630.72
2022-08-27T13:52:24.318Z,99629.16
2022-08-27T13:55:17.287Z,99630.78
2022-08-27T13:58:14.939Z,99616.56
2022-08-27T14:01:12.191Z,99619.59
2022-08-27T14:04:04.082Z,99626.25
2022-08-27T14:06:56.119Z,99616.88
2022-08-27T14:09:54.213Z,99622.34
2022-08-27T14:12:43.213Z,99616.00
2022-08-27T14:15:34.143Z,99617.06
2022-08-27T14:18:37.116Z,99620.31
2022-08-27T14:21:35.102Z,99631.59
2022-08-27T14:24:24.463Z,99625.13
2022-08-27T14:27:15.968Z,99611.88
2022-08-27T14:30:05.447Z,99623.22
2022-08-27T14:32:56.253Z,99629.53
2022-08-27T14:35:46.144Z,99608.66
2022-08-27T14:38:41.039Z,99622.38
2022-08-27T14:41:30.515Z,99628.09
2022-08-27T14:44:21.154Z,99619.09
2022-08-27T14:47:10.520Z,99629.69
2022-08-27T14:49:58.822Z,99630.34
2022-08-27T14:52:46.744Z,99624.34
2022-08-27T14:55:34.729Z,99621.81
2022-08-27T14:58:24.033Z,99627.47
2022-08-27T15:01:12.703Z,99584.75
2022-08-27T15:04:00.660Z,99625.16
2022-08-27T15:06:48.579Z,99625.78
2022-08-27T15:09:36.708Z,99624.25
2022-08-27T15:12:26.604Z,99632.50
2022-08-27T15:15:17.420Z,99624.19
2022-08-27T15:18:05.806Z,99629.13
2022-08-27T15:20:53.881Z,99621.59
2022-08-27T15:23:42.066Z,99616.28
2022-08-27T15:26:30.653Z,99615.56
2022-08-27T15:29:18.791Z,99620.34
2022-08-27T15:32:11.331Z,99617.88
2022-08-27T15:35:01.982Z,99623.13
2022-08-27T15:37:50.381Z,99624.19
2022-08-27T15:40:38.501Z,99620.56
2022-08-27T15:43:27.554Z,99602.53
2022-08-27T15:46:15.726Z,99609.06
2022-08-27T15:49:06.438Z,99608.53
2022-08-27T15:51:55.362Z,99608.16
2022-08-27T15:54:49.076Z,99605.53
2022-08-27T15:57:37.082Z,99606.44
2022-08-27T16:00:26.050Z,99605.63
2022-08-27T16:03:15.791Z,99608.09
2022-08-27T16:06:06.067Z,99606.63
2022-08-27T16:08:54.210Z,99601.38
2022-08-27T16:11:42.231Z,99599.81
2022-08-27T16:14:30.485Z,99598.34
2022-08-27T16:17:21.023Z,99593.63
2022-08-27T16:20:12.333Z,99609.91
2022-08-27T16:23:01.788Z,99612.78
2022-08-27T16:25:49.830Z,99611.00
2022-08-27T16:28:38.204Z,99612.84
2022-08-27T16:31:26.385Z,99609.59
2022-08-27T16:34:17.747Z,99609.44
2022-08-27T16:37:05.794Z,99614.88
2022-08-27T16:39:55.180Z,99618.69
2022-08-27T16:42:45.694Z,99607.84
2022-08-27T16:45:33.663Z,99611.16
2022-08-27T16:48:39.536Z,99605.25
2022-08-27T16:51:32.678Z,99610.72
2022-08-27T16:54:22.474Z,99613.13
2022-08-27T16:57:11.846Z,99622.78
2022-08-27T16:59:59.837Z,99621.09
2022-08-27T17:02:48.209Z,99613.81
2022-08-27T17:05:36.375Z,99621.47
2022-08-27T17:08:27.266Z,99625.31
2022-08-27T17:11:17.552Z,99631.44
2022-08-27T17:14:07.673Z,99644.47
2022-08-27T17:16:55.677Z,99642.47
2022-08-27T17:19:43.763Z,99628.41
2022-08-27T17:22:31.849Z,99650.22
2022-08-27T17:25:20.068Z,99646.06
2022-08-27T17:28:10.443Z,99654.88
2022-08-27T17:31:02.048Z,99656.69
2022-08-27T17:33:53.081Z,99652.34
2022-08-27T17:36:41.080Z,99653.09
2022-08-27T17:39:32.497Z,99653.47
2022-08-27T17:42:20.508Z,99653.09
2022-08-27T17:45:10.048Z,99654.59
2022-08-27T17:47:59.699Z,99652.75
2022-08-27T17:50:53.907Z,99632.06
2022-08-27T17:53:47.033Z,99654.25
2022-08-27T17:56:37.081Z,99652.09
2022-08-27T17:59:26.073Z,99659.63
2022-08-27T18:02:21.179Z,99648.94
2022-08-27T18:05:13.088Z,99654.13
2022-08-27T18:08:01.237Z,99654.28
2022-08-27T18:10:49.404Z,99661.00
2022-08-27T18:13:37.676Z,99655.25
2022-08-27T18:16:25.821Z,99663.34
2022-08-27T18:19:14.224Z,99664.13
2022-08-27T18:22:04.186Z,99667.88
2022-08-27T18:24:52.142Z,99673.72
2022-08-27T18:27:43.770Z,99677.75
2022-08-27T18:30:32.159Z,99676.66
2022-08-27T18:33:20.188Z,99686.72
2022-08-27T18:36:08.641Z,99686.06
2022-08-27T18:38:58.070Z,99689.41
2022-08-27T18:41:46.189Z,99695.84
2022-08-27T18:44:37.440Z,99692.53
2022-08-27T18:47:25.554Z,99697.47
2022-08-27T18:50:17.313Z,99704.94
2022-08-27T18:53:05.809Z,99707.91
2022-08-27T18:55:55.524Z,99711.00
2022-08-27T18:58:43.589Z,99713.03
2022-08-27T19:01:31.868Z,99726.44
2022-08-27T19:04:20.040Z,99721.94
2022-08-27T19:07:08.275Z,99724.28
2022-08-27T19:09:56.483Z,99723.06
2022-08-27T19:12:46.810Z,99732.88
2022-08-27T19:15:35.160Z,99735.28
2022-08-27T19:18:26.058Z,99740.25
2022-08-27T19:21:14.263Z,99738.66
2022-08-27T19:24:04.186Z,99743.53
2022-08-27T19:26:53.454Z,99717.38
2022-08-27T19:29:42.879Z,99665.13
2022-08-27T19:32:31.063Z,99742.81
2022-08-27T19:35:19.395Z,99737.56
2022-08-27T19:38:08.746Z,99747.53
2022-08-27T19:40:57.129Z,99740.69
2022-08-27T19:43:45.944Z,99754.34
2022-08-27T19:46:37.766Z,99751.56
2022-08-27T19:49:26.052Z,99759.25
2022-08-27T19:52:14.452Z,99761.25
2022-08-27T19:55:13.743Z,99762.63
2022-08-27T19:58:02.373Z,99757.59
2022-08-27T20:00:50.365Z,99767.81
2022-08-27T20:03:39.889Z,99755.78
2022-08-27T20:06:28.311Z,99767.31
2022-08-27T20:09:17.911Z,99761.50
2022-08-27T20:12:06.348Z,99760.06
2022-08-27T20:14:54.330Z,99758.97
2022-08-27T20:17:43.978Z,99759.88
2022-08-27T20:20:35.221Z,99762.59
2022-08-27T20:23:23.247Z,99767.59
2022-08-27T20:26:13.254Z,99770.22
2022-08-27T20:29:02.213Z,99767.09
2022-08-27T20:31:50.736Z,99776.03
2022-08-27T20:34:38.743Z,99782.16
2022-08-27T20:37:28.059Z,99783.38
2022-08-27T20:40:19.443Z,99795.81
2022-08-27T20:43:07.531Z,99794.25
2022-08-27T20:45:55.584Z,99803.22
2022-08-27T20:48:43.673Z,99795.72
2022-08-27T20:51:31.934Z,99794.38
2022-08-27T20:54:41.772Z,99795.69
2022-08-27T20:57:29.900Z,99798.16
2022-08-27T21:00:20.170Z,99797.38
2022-08-27T21:03:08.420Z,99798.78
2022-08-27T21:05:56.419Z,99806.09
2022-08-27T21:08:44.431Z,99807.84
2022-08-27T21:11:33.975Z,99809.75
2022-08-27T21:14:21.942Z,99800.91
2022-08-27T21:17:11.617Z,99754.72
2022-08-27T21:19:59.775Z,99805.59
2022-08-27T21:22:47.787Z,99800.97
2022-08-27T21:25:36.097Z,99806.56
2022-08-27T21:28:25.383Z,99809.03
2022-08-27T21:31:13.482Z,99811.84
2022-08-27T21:34:01.526Z,99818.47
2022-08-27T21:36:49.540Z,99812.09
2022-08-27T21:39:37.731Z,99812.22
2022-08-27T21:42:25.771Z,99815.78
2022-08-27T21:45:15.643Z,99820.94
2022-08-27T21:48:07.921Z,99817.03
2022-08-27T21:50:56.418Z,99818.28
2022-08-27T21:53:45.322Z,99820.66
2022-08-27T21:56:33.357Z,99816.75
2022-08-27T21:59:21.820Z,99822.84
2022-08-27T22:02:35.757Z,99823.00
2022-08-27T22:05:19.664Z,99819.53
2022-08-27T22:08:08.006Z,99820.88
2022-08-27T22:10:58.709Z,99821.34
2022-08-27T22:13:47.124Z,99817.31
2022-08-27T22:16:35.181Z,99815.53
2022-08-27T22:19:24.773Z,99808.25
2022-08-27T22:22:12.751Z,99809.94
2022-08-27T22:25:00.809Z,99807.25
2022-08-27T22:27:48.803Z,99802.13
2022-08-27T22:30:36.894Z,99801.25
2022-08-27T22:33:24.996Z,99798.22
2022-08-27T22:36:14.331Z,99806.75
2022-08-27T22:39:03.747Z,99800.03
2022-08-27T22:41:52.364Z,99804.25
2022-08-27T22:44:40.432Z,99785.06
2022-08-27T22:47:28.670Z,99796.03
2022-08-27T22:50:17.007Z,99800.94
2022-08-27T22:53:06.370Z,99802.72
2022-08-27T22:55:56.231Z,99798.81
2022-08-27T22:58:46.242Z,99807.63
2022-08-27T23:01:36.249Z,99797.56
2022-08-27T23:04:39.165Z,99803.06
2022-08-27T23:07:33.550Z,99799.59
2022-08-27T23:10:25.047Z,99802.16
2022-08-27T23:13:14.031Z,99796.13
2022-08-27T23:16:03.006Z,99798.81
2022-08-27T23:18:51.147Z,99793.66
2022-08-27T23:21:39.223Z,99792.75
2022-08-27T23:24:27.313Z,99793.44
2022-08-27T23:27:30.640Z,99795.69
2022-08-27T23:30:19.242Z,99793.34
2022-08-27T23:33:07.272Z,99796.56
2022-08-27T23:35:55.259Z,99808.06
2022-08-27T23:38:43.306Z,99808.19
2022-08-27T23:41:31.273Z,99808.41
2022-08-27T23:44:20.621Z,99799.16
2022-08-27T23:47:08.660Z,99804.72
2022-08-27T23:49:56.642Z,99805.41
2022-08-27T23:52:44.826Z,99807.06
2022-08-27T23:55:33.432Z,99800.69
2022-08-27T23:58:21.677Z,99812.88
